sensor_id;sensor_type;location;lat;lon;timestamp;P1;durP1;ratioP1;P2;durP2;ratioP2
44446;SDS011;30152;52.066;5.358;2023-11-21T07:44:58;38.40;;;18.15;;
44446;SDS011;30152;52.066;5.358;2023-11-21T07:47:23;42.73;;;19.87;;
44446;SDS011;30152;52.066;5.358;2023-11-21T07:49:51;46.88;;;20.00;;
44446;SDS011;30152;52.066;5.358;2023-11-21T07:52:18;37.90;;;14.68;;
44446;SDS011;30152;52.066;5.358;2023-11-21T07:54:46;39.05;;;14.65;;
44446;SDS011;30152;52.066;5.358;2023-11-21T07:57:12;37.90;;;14.35;;
44446;SDS011;30152;52.066;5.358;2023-11-21T07:59:38;32.92;;;13.80;;
44446;SDS011;30152;52.066;5.358;2023-11-21T08:02:05;37.38;;;14.50;;
44446;SDS011;30152;52.066;5.358;2023-11-21T08:04:32;32.85;;;14.05;;
44446;SDS011;30152;52.066;5.358;2023-11-21T08:06:57;38.47;;;18.48;;
44446;SDS011;30152;52.066;5.358;2023-11-21T08:09:23;38.38;;;17.98;;
44446;SDS011;30152;52.066;5.358;2023-11-21T08:11:49;37.13;;;18.43;;
44446;SDS011;30152;52.066;5.358;2023-11-21T08:14:15;36.17;;;15.02;;
44446;SDS011;30152;52.066;5.358;2023-11-21T08:16:41;39.65;;;13.73;;
44446;SDS011;30152;52.066;5.358;2023-11-21T08:19:07;42.50;;;14.20;;
44446;SDS011;30152;52.066;5.358;2023-11-21T08:21:34;28.75;;;12.02;;
44446;SDS011;30152;52.066;5.358;2023-11-21T08:24:02;29.10;;;12.15;;
44446;SDS011;30152;52.066;5.358;2023-11-21T08:28:54;25.73;;;10.98;;
44446;SDS011;30152;52.066;5.358;2023-11-21T08:33:50;28.27;;;10.48;;
44446;SDS011;30152;52.066;5.358;2023-11-21T08:36:16;35.55;;;11.90;;
44446;SDS011;30152;52.066;5.358;2023-11-21T08:38:41;27.73;;;12.85;;
44446;SDS011;30152;52.066;5.358;2023-11-21T08:41:07;27.60;;;11.27;;
44446;SDS011;30152;52.066;5.358;2023-11-21T08:43:35;30.77;;;11.40;;
44446;SDS011;30152;52.066;5.358;2023-11-21T08:46:04;28.73;;;9.82;;
44446;SDS011;30152;52.066;5.358;2023-11-21T08:48:31;27.67;;;10.93;;
44446;SDS011;30152;52.066;5.358;2023-11-21T08:50:57;35.78;;;10.90;;
44446;SDS011;30152;52.066;5.358;2023-11-21T08:53:22;26.02;;;9.65;;
44446;SDS011;30152;52.066;5.358;2023-11-21T08:55:48;30.23;;;10.13;;
44446;SDS011;30152;52.066;5.358;2023-11-21T08:58:15;28.67;;;10.38;;
44446;SDS011;30152;52.066;5.358;2023-11-21T09:00:40;30.90;;;11.35;;
44446;SDS011;30152;52.066;5.358;2023-11-21T09:03:07;29.20;;;9.80;;
44446;SDS011;30152;52.066;5.358;2023-11-21T09:05:33;24.45;;;9.20;;
44446;SDS011;30152;52.066;5.358;2023-11-21T09:08:02;31.35;;;10.52;;
44446;SDS011;30152;52.066;5.358;2023-11-21T09:10:28;25.77;;;9.55;;
44446;SDS011;30152;52.066;5.358;2023-11-21T09:12:53;29.23;;;9.20;;
44446;SDS011;30152;52.066;5.358;2023-11-21T09:15:19;26.95;;;9.38;;
44446;SDS011;30152;52.066;5.358;2023-11-21T09:17:45;31.33;;;9.52;;
44446;SDS011;30152;52.066;5.358;2023-11-21T09:20:11;24.38;;;8.65;;
44446;SDS011;30152;52.066;5.358;2023-11-21T09:22:37;30.80;;;9.40;;
44446;SDS011;30152;52.066;5.358;2023-11-21T09:25:03;27.00;;;9.40;;
44446;SDS011;30152;52.066;5.358;2023-11-21T09:27:30;33.95;;;9.77;;
44446;SDS011;30152;52.066;5.358;2023-11-21T09:29:56;27.38;;;9.90;;
44446;SDS011;30152;52.066;5.358;2023-11-21T09:32:23;25.38;;;9.73;;
44446;SDS011;30152;52.066;5.358;2023-11-21T09:34:49;29.88;;;10.95;;
44446;SDS011;30152;52.066;5.358;2023-11-21T09:37:15;27.90;;;10.02;;
44446;SDS011;30152;52.066;5.358;2023-11-21T09:39:41;34.08;;;11.77;;
44446;SDS011;30152;52.066;5.358;2023-11-21T09:44:35;34.90;;;12.48;;
44446;SDS011;30152;52.066;5.358;2023-11-21T09:47:07;35.58;;;12.10;;
44446;SDS011;30152;52.066;5.358;2023-11-21T09:49:38;34.35;;;12.23;;
44446;SDS011;30152;52.066;5.358;2023-11-21T09:52:05;33.67;;;12.60;;
44446;SDS011;30152;52.066;5.358;2023-11-21T09:54:34;37.67;;;14.15;;
44446;SDS011;30152;52.066;5.358;2023-11-21T09:57:00;35.28;;;13.77;;
44446;SDS011;30152;52.066;5.358;2023-11-21T09:59:29;36.45;;;13.88;;
44446;SDS011;30152;52.066;5.358;2023-11-21T10:02:00;42.50;;;15.50;;
44446;SDS011;30152;52.066;5.358;2023-11-21T10:04:27;38.20;;;14.13;;
44446;SDS011;30152;52.066;5.358;2023-11-21T10:06:53;36.35;;;14.27;;
44446;SDS011;30152;52.066;5.358;2023-11-21T10:09:20;42.88;;;15.40;;
44446;SDS011;30152;52.066;5.358;2023-11-21T10:11:46;41.08;;;14.85;;
44446;SDS011;30152;52.066;5.358;2023-11-21T10:14:14;39.85;;;14.50;;
44446;SDS011;30152;52.066;5.358;2023-11-21T10:16:45;37.50;;;15.10;;
44446;SDS011;30152;52.066;5.358;2023-11-21T10:19:12;41.03;;;15.50;;
44446;SDS011;30152;52.066;5.358;2023-11-21T10:21:38;37.38;;;14.45;;
44446;SDS011;30152;52.066;5.358;2023-11-21T10:24:04;31.33;;;13.38;;
44446;SDS011;30152;52.066;5.358;2023-11-21T10:26:31;39.60;;;15.27;;
44446;SDS011;30152;52.066;5.358;2023-11-21T10:28:58;36.53;;;14.20;;
44446;SDS011;30152;52.066;5.358;2023-11-21T10:31:27;35.83;;;13.65;;
44446;SDS011;30152;52.066;5.358;2023-11-21T10:33:54;34.50;;;12.52;;
44446;SDS011;30152;52.066;5.358;2023-11-21T10:36:35;25.58;;;10.95;;
44446;SDS011;30152;52.066;5.358;2023-11-21T10:39:01;27.15;;;11.10;;
44446;SDS011;30152;52.066;5.358;2023-11-21T10:41:27;27.27;;;10.13;;
44446;SDS011;30152;52.066;5.358;2023-11-21T10:43:53;23.17;;;10.07;;
44446;SDS011;30152;52.066;5.358;2023-11-21T10:46:20;23.73;;;9.75;;
44446;SDS011;30152;52.066;5.358;2023-11-21T10:48:51;25.15;;;10.23;;
44446;SDS011;30152;52.066;5.358;2023-11-21T10:51:21;23.85;;;9.68;;
44446;SDS011;30152;52.066;5.358;2023-11-21T10:53:49;19.20;;;9.27;;
44446;SDS011;30152;52.066;5.358;2023-11-21T10:56:16;20.35;;;8.32;;
44446;SDS011;30152;52.066;5.358;2023-11-21T10:58:44;19.33;;;9.00;;
44446;SDS011;30152;52.066;5.358;2023-11-21T11:01:11;22.20;;;9.45;;
44446;SDS011;30152;52.066;5.358;2023-11-21T11:03:39;24.13;;;10.43;;
44446;SDS011;30152;52.066;5.358;2023-11-21T11:06:05;24.52;;;9.70;;
44446;SDS011;30152;52.066;5.358;2023-11-21T11:08:36;25.50;;;10.48;;
44446;SDS011;30152;52.066;5.358;2023-11-21T11:11:02;22.80;;;9.93;;
44446;SDS011;30152;52.066;5.358;2023-11-21T11:13:28;24.17;;;10.30;;
44446;SDS011;30152;52.066;5.358;2023-11-21T11:15:57;25.27;;;10.63;;
